Madigan Hospital, Washington
Current Conditions -  °F | °C
As of 10:58 PM on Friday 24 Oct 2014 (Local Time) from KGRF Reporting Station
Drizzle Drizzle  
Wind Chill: 51°   Ceiling: 9500
Heat Index: 51°   Visibility: 10mi
Dew Point: 51°   Wind: 9mph
Humidity: 99%   Direction: 360°N
Pressure: 29.75"   Gusts: NA
Location:  47.1056°N, 122.55°W
Report Text: KGRF 250558Z AUTO 36008KT 10SM DZ SCT055 BKN095 OVC160 11/11 A2975 RMK AO2 DZB0532E0536 SLP078 P0003 60033 T01060105 10125 20106 58026 $
Loading
Personal Weather Stations






























Interactive Weather Map
Tropical Storm Tracking
New forecast layout! Learn more

10-Day Weather Forecast

Advertisements
Track Severe Weather on mobile